Time;durP1;ratioP1;P1;durP2;ratioP2;P2;SDS_P1;SDS_P2;PMS_P1;PMS_P2;Temp;Humidity;BMP_temperature;BMP_pressure;BME280_temperature;BME280_humidity;BME280_pressure;Samples;Min_cycle;Max_cycle;Signal;HPM_P1;HPM_P2
2023/06/26 00:01:30;;;;;;;29.93;22.67;;;;;;;19.09;100.00;92677.50;5068390;28;20218;-77
2023/06/26 00:03:56;;;;;;;27.47;22.53;;;;;;;19.21;100.00;92690.72;5068160;28;20255;-77
2023/06/26 00:06:25;;;;;;;29.57;23.17;;;;;;;19.12;100.00;92680.25;5070536;28;20219;-78
2023/06/26 00:08:54;;;;;;;28.03;23.97;;;;;;;18.96;100.00;92697.06;5069162;28;20206;-77
2023/06/26 00:11:21;;;;;;;30.10;23.10;;;;;;;19.13;100.00;92696.88;5068457;28;20214;-77
2023/06/26 00:13:46;;;;;;;27.70;22.57;;;;;;;18.86;100.00;92663.88;5068535;28;20185;-77
2023/06/26 00:16:12;;;;;;;30.17;23.83;;;;;;;19.03;100.00;92666.34;5069892;28;20255;-77
2023/06/26 00:18:37;;;;;;;30.40;22.37;;;;;;;19.04;100.00;92675.81;5070978;28;20187;-77
2023/06/26 00:21:03;;;;;;;29.53;22.60;;;;;;;18.92;100.00;92696.19;5070132;28;20237;-76
2023/06/26 00:23:30;;;;;;;25.03;22.37;;;;;;;19.10;100.00;92694.91;5070145;28;20195;-77
2023/06/26 00:25:56;;;;;;;27.33;21.70;;;;;;;18.91;100.00;92668.19;5069872;28;20230;-77
2023/06/26 00:28:21;;;;;;;25.50;22.43;;;;;;;19.09;100.00;92688.06;5067555;28;20228;-78
2023/06/26 00:30:46;;;;;;;26.17;21.90;;;;;;;18.82;100.00;92670.94;5068431;28;20238;-77
2023/06/26 00:33:12;;;;;;;24.57;21.70;;;;;;;18.99;100.00;92669.97;5069942;28;20202;-78
2023/06/26 00:35:37;;;;;;;23.60;21.10;;;;;;;19.01;100.00;92683.63;5068172;28;20243;-74
2023/06/26 00:38:03;;;;;;;26.03;20.77;;;;;;;18.83;100.00;92677.00;5070610;28;20191;-78
2023/06/26 00:40:28;;;;;;;24.80;20.60;;;;;;;18.64;100.00;92684.66;5066853;28;20225;-75
2023/06/26 00:42:54;;;;;;;24.77;22.17;;;;;;;18.67;100.00;92674.19;5070572;28;20199;-74
2023/06/26 00:45:19;;;;;;;24.90;21.93;;;;;;;18.61;100.00;92678.16;5069034;28;20217;-75
2023/06/26 00:47:45;;;;;;;26.73;21.03;;;;;;;18.56;100.00;92674.91;5070181;28;20243;-74
2023/06/26 00:50:10;;;;;;;23.03;20.70;;;;;;;18.51;100.00;92659.25;5067314;28;20221;-74
2023/06/26 00:52:37;;;;;;;21.80;19.60;;;;;;;18.73;100.00;92677.41;5067390;28;20267;-74
2023/06/26 00:55:03;;;;;;;24.10;21.57;;;;;;;18.45;100.00;92645.47;5069152;28;20223;-74
2023/06/26 00:57:30;;;;;;;22.53;20.10;;;;;;;18.69;100.00;92669.34;5069514;28;20194;-74
2023/06/26 00:59:56;;;;;;;24.33;21.70;;;;;;;18.70;100.00;92678.03;5069414;28;20256;-74
2023/06/26 01:02:21;;;;;;;22.43;20.23;;;;;;;18.74;100.00;92663.84;5070306;28;20191;-74
2023/06/26 01:04:50;;;;;;;23.37;20.37;;;;;;;18.82;100.00;92662.97;5068770;28;20260;-74
2023/06/26 01:07:18;;;;;;;22.53;19.90;;;;;;;18.75;100.00;92643.47;5069110;28;20243;-74
2023/06/26 01:09:45;;;;;;;21.60;19.30;;;;;;;18.67;100.00;92645.09;5064158;28;20230;-74
2023/06/26 01:12:11;;;;;;;22.77;20.60;;;;;;;18.49;100.00;92635.03;5070043;28;20182;-73
2023/06/26 01:14:36;;;;;;;24.20;19.93;;;;;;;18.54;100.00;92642.72;5063897;28;20224;-74
2023/06/26 01:17:02;;;;;;;25.53;20.30;;;;;;;18.51;100.00;92628.28;5065045;28;20186;-74
2023/06/26 01:19:30;;;;;;;20.70;18.70;;;;;;;18.52;100.00;92642.31;5068672;28;20729;-73
2023/06/26 01:22:00;;;;;;;22.30;20.00;;;;;;;18.51;100.00;92638.09;5068970;28;20200;-72
2023/06/26 01:24:37;;;;;;;22.10;19.73;;;;;;;18.65;100.00;92638.56;5069354;28;20242;-74
2023/06/26 01:27:03;;;;;;;21.77;19.57;;;;;;;18.40;100.00;92637.72;5069839;28;20214;-74
2023/06/26 01:29:31;;;;;;;26.37;20.67;;;;;;;18.44;100.00;92638.66;5065099;28;20214;-75
2023/06/26 01:31:57;;;;;;;22.20;19.77;;;;;;;18.58;100.00;92633.06;5067715;28;20187;-74
2023/06/26 01:34:23;;;;;;;22.90;20.30;;;;;;;18.26;100.00;92604.72;5067445;28;20190;-74
2023/06/26 01:36:48;;;;;;;22.73;20.23;;;;;;;18.45;100.00;92623.53;5057947;28;20198;-74
2023/06/26 01:39:19;;;;;;;21.13;19.13;;;;;;;18.45;100.00;92623.53;5068691;28;20218;-74
2023/06/26 01:41:45;;;;;;;23.80;21.23;;;;;;;18.35;100.00;92618.63;5068032;28;20214;-74
2023/06/26 01:44:28;;;;;;;21.30;19.00;;;;;;;18.20;100.00;92613.94;5069285;28;20187;-74
2023/06/26 01:47:17;;;;;;;24.73;20.20;;;;;;;18.31;100.00;92628.31;5067836;28;20226;-76
2023/06/26 01:50:18;;;;;;;24.40;19.43;;;;;;;18.33;100.00;92631.41;5063825;28;20235;-75
2023/06/26 01:53:04;;;;;;;22.27;19.97;;;;;;;18.32;100.00;92619.28;5056787;28;20183;-75
2023/06/26 01:55:40;;;;;;;22.47;20.07;;;;;;;18.36;100.00;92618.31;5067070;28;20226;-74
2023/06/26 01:58:06;;;;;;;22.00;19.80;;;;;;;18.12;100.00;92594.41;5068639;28;20196;-75
2023/06/26 02:00:33;;;;;;;24.33;20.77;;;;;;;18.26;100.00;92620.56;5069207;28;20252;-74
2023/06/26 02:02:58;;;;;;;23.17;20.87;;;;;;;18.17;100.00;92638.38;5067670;28;20179;-75
2023/06/26 02:05:24;;;;;;;22.40;20.00;;;;;;;18.24;100.00;92628.06;5073307;28;20224;-74
2023/06/26 02:07:51;;;;;;;23.30;20.93;;;;;;;18.22;100.00;92625.75;5066700;28;20215;-74
2023/06/26 02:10:16;;;;;;;25.60;19.33;;;;;;;18.03;100.00;92591.09;5066199;28;20235;-74
2023/06/26 02:12:42;;;;;;;25.27;21.43;;;;;;;18.35;100.00;92626.56;5069891;28;20202;-72
2023/06/26 02:15:08;;;;;;;22.87;18.77;;;;;;;18.38;100.00;92613.47;5073293;28;20926;-75
2023/06/26 02:17:33;;;;;;;26.10;20.87;;;;;;;18.33;100.00;92595.19;5072540;28;20195;-74
2023/06/26 02:19:58;;;;;;;21.43;19.23;;;;;;;18.49;100.00;92619.16;5073110;28;20375;-74
2023/06/26 02:22:24;;;;;;;21.57;19.40;;;;;;;18.49;100.00;92625.19;5083427;28;20195;-73
2023/06/26 02:24:49;;;;;;;24.10;20.43;;;;;;;18.36;100.00;92610.38;5072381;28;20230;-75
2023/06/26 02:27:15;;;;;;;25.80;22.43;;;;;;;18.30;100.00;92627.53;5072444;28;20212;-74
2023/06/26 02:29:41;;;;;;;24.30;22.03;;;;;;;18.36;100.00;92628.09;5071783;28;20241;-74
2023/06/26 02:32:07;;;;;;;22.57;20.20;;;;;;;18.39;100.00;92628.25;5069456;28;20191;-74
2023/06/26 02:34:33;;;;;;;23.80;21.33;;;;;;;18.30;100.00;92627.53;5072445;28;20283;-74
2023/06/26 02:37:00;;;;;;;24.03;21.43;;;;;;;18.42;100.00;92629.47;5071390;28;20198;-74
2023/06/26 02:39:26;;;;;;;23.50;21.10;;;;;;;18.30;100.00;92616.19;5071031;28;20309;-75
2023/06/26 02:41:51;;;;;;;26.60;21.37;;;;;;;18.30;100.00;92626.75;5071977;28;20213;-75
2023/06/26 02:44:16;;;;;;;25.20;22.30;;;;;;;18.23;100.00;92615.94;5072265;28;20182;-75
2023/06/26 02:46:42;;;;;;;23.83;21.33;;;;;;;18.18;100.00;92602.94;5071674;28;20853;-74
2023/06/26 02:49:07;;;;;;;24.77;22.20;;;;;;;18.35;100.00;92626.56;5072487;28;20203;-74
2023/06/26 02:51:34;;;;;;;24.67;21.77;;;;;;;18.33;100.00;92631.41;5069969;28;20190;-74
2023/06/26 02:54:00;;;;;;;25.50;22.80;;;;;;;18.42;100.00;92634.75;5072214;28;20190;-74
2023/06/26 02:56:28;;;;;;;26.47;21.57;;;;;;;18.50;100.00;92639.19;5071979;28;20218;-75
2023/06/26 02:58:54;;;;;;;25.00;22.47;;;;;;;18.38;100.00;92629.34;5071436;28;20172;-73
2023/06/26 03:01:20;;;;;;;27.87;22.10;;;;;;;18.44;100.00;92641.28;5071797;28;20238;-74
2023/06/26 03:03:46;;;;;;;29.23;24.27;;;;;;;18.38;100.00;92636.53;5071998;28;20421;-74
2023/06/26 03:06:13;;;;;;;27.80;23.93;;;;;;;18.44;100.00;92640.50;5072109;28;20238;-74
2023/06/26 03:08:39;;;;;;;24.80;22.23;;;;;;;18.46;100.00;92635.69;5070468;28;20214;-75
2023/06/26 03:11:05;;;;;;;25.90;23.27;;;;;;;18.49;100.00;92619.16;5068936;28;20241;-77
2023/06/26 03:13:32;;;;;;;26.23;23.47;;;;;;;18.51;100.00;92644.16;5072370;28;20198;-75
2023/06/26 03:15:57;;;;;;;25.83;22.70;;;;;;;18.40;100.00;92648.31;5069265;28;20331;-76
2023/06/26 03:18:23;;;;;;;27.17;23.43;;;;;;;18.62;100.00;92650.59;5072489;28;20322;-76
2023/06/26 03:20:48;;;;;;;27.53;23.63;;;;;;;18.51;100.00;92628.28;5070749;28;20222;-77
2023/06/26 03:23:13;;;;;;;25.83;22.07;;;;;;;18.66;100.00;92646.19;5069751;28;20183;-77
2023/06/26 03:25:39;;;;;;;25.73;23.07;;;;;;;18.54;100.00;92632.94;5071653;28;20218;-76
2023/06/26 03:28:04;;;;;;;25.40;22.70;;;;;;;18.39;100.00;92636.19;5064839;28;20223;-75
2023/06/26 03:30:29;;;;;;;26.27;22.83;;;;;;;18.35;100.00;92629.22;5067119;28;20232;-76
2023/06/26 03:32:55;;;;;;;26.77;23.07;;;;;;;18.42;100.00;92629.47;5069290;28;20193;-76
2023/06/26 03:35:20;;;;;;;26.43;23.63;;;;;;;18.42;100.00;92629.47;5097358;28;20240;-76
2023/06/26 03:37:45;;;;;;;26.30;23.43;;;;;;;18.75;100.00;92635.53;5071158;28;20208;-76
2023/06/26 03:40:11;;;;;;;26.43;23.73;;;;;;;18.66;100.00;92637.50;5070036;28;20287;-69
2023/06/26 03:42:36;;;;;;;25.80;23.00;;;;;;;18.56;100.00;92629.97;5071501;28;20186;-68
2023/06/26 03:45:02;;;;;;;26.33;22.87;;;;;;;18.65;100.00;92644.66;5069427;28;20318;-69
2023/06/26 03:47:27;;;;;;;26.17;22.63;;;;;;;18.46;100.00;92644.34;5071231;28;20231;-70
2023/06/26 03:49:53;;;;;;;25.07;22.50;;;;;;;18.59;100.00;92651.25;5066068;28;20255;-71
2023/06/26 03:52:18;;;;;;;25.77;23.20;;;;;;;18.69;100.00;92650.06;5068673;28;20233;-71
2023/06/26 03:54:44;;;;;;;29.80;22.60;;;;;;;18.74;100.00;92647.22;5069709;28;20233;-71
2023/06/26 03:57:09;;;;;;;24.90;22.23;;;;;;;18.84;100.00;92649.44;5070655;28;20181;-72
2023/06/26 03:59:35;;;;;;;25.10;22.50;;;;;;;18.89;100.00;92649.22;5066870;28;20235;-72
2023/06/26 04:02:01;;;;;;;28.30;22.63;;;;;;;18.85;100.00;92641.16;5059084;28;20195;-70
2023/06/26 04:04:26;;;;;;;24.80;22.10;;;;;;;18.90;100.00;92633.03;5059416;28;20276;-70
2023/06/26 04:06:52;;;;;;;25.60;22.73;;;;;;;18.59;100.00;92618.72;5062584;28;20218;-71
2023/06/26 04:09:17;;;;;;;27.50;22.43;;;;;;;19.04;100.00;92646.72;5066171;28;20198;-69
2023/06/26 04:11:42;;;;;;;22.50;20.30;;;;;;;19.18;100.00;92647.19;5060247;28;20266;-71
2023/06/26 04:14:08;;;;;;;23.37;21.07;;;;;;;18.94;100.00;92647.13;5062056;28;20197;-71
2023/06/26 04:16:33;;;;;;;23.47;21.07;;;;;;;19.56;100.00;92638.94;5064701;28;20258;-71
2023/06/26 04:18:58;;;;;;;22.43;20.07;;;;;;;19.60;96.56;92615.19;5065126;28;20179;-72
2023/06/26 04:21:24;;;;;;;23.97;21.73;;;;;;;19.53;97.97;92646.78;5060328;28;20223;-71
2023/06/26 04:23:50;;;;;;;23.30;20.80;;;;;;;19.78;97.22;92650.94;5074715;28;20185;-72
2023/06/26 04:26:16;;;;;;;23.70;21.20;;;;;;;19.99;95.68;92655.00;5061512;28;20296;-72
2023/06/26 04:28:42;;;;;;;22.40;20.20;;;;;;;19.92;95.42;92652.13;5067227;28;20281;-71
2023/06/26 04:31:08;;;;;;;22.40;20.20;;;;;;;19.91;94.04;92645.28;5065862;28;20236;-72
2023/06/26 04:33:35;;;;;;;21.43;19.43;;;;;;;20.35;92.20;92660.22;5064719;28;20202;-71
2023/06/26 04:36:03;;;;;;;21.60;19.47;;;;;;;20.89;87.49;92659.78;5067155;28;20226;-71
2023/06/26 04:38:28;;;;;;;22.05;19.65;;;;;;;22.31;82.78;92671.53;5067737;28;20168;-70
2023/06/26 04:40:54;;;;;;;20.13;18.23;;;;;;;21.42;83.65;92653.91;5065960;28;20247;-80
2023/06/26 04:43:19;;;;;;;20.95;18.52;;;;;;;21.86;83.73;92666.00;5069250;28;20253;-80
2023/06/26 04:45:44;;;;;;;20.67;18.30;;;;;;;21.60;84.83;92676.38;5068175;28;20236;-80
2023/06/26 04:48:10;;;;;;;23.25;18.52;;;;;;;22.10;81.69;92671.09;5069857;28;20355;-79
2023/06/26 04:50:35;;;;;;;20.83;18.88;;;;;;;21.04;86.98;92667.00;5068732;28;20231;-80
2023/06/26 04:53:02;;;;;;;20.50;18.55;;;;;;;20.92;89.12;92669.72;5069815;28;20202;-80
2023/06/26 04:55:28;;;;;;;21.20;19.10;;;;;;;20.73;90.25;92673.78;5064766;28;20214;-79
2023/06/26 04:57:53;;;;;;;21.38;19.38;;;;;;;20.40;90.88;92670.59;5070471;28;20178;-80
2023/06/26 05:00:19;;;;;;;21.60;19.65;;;;;;;20.89;90.26;92659.78;5068646;28;20246;-80
2023/06/26 05:02:45;;;;;;;22.48;20.08;;;;;;;20.90;90.76;92666.63;5068559;28;20167;-80
2023/06/26 05:05:11;;;;;;;21.77;19.58;;;;;;;20.80;90.29;92667.88;5068308;28;20255;-80
2023/06/26 05:07:36;;;;;;;21.95;19.77;;;;;;;21.40;88.77;92667.53;5067689;28;20212;-80
2023/06/26 05:10:02;;;;;;;20.60;18.50;;;;;;;21.76;84.60;92667.28;5067444;28;20238;-80
2023/06/26 05:12:28;;;;;;;21.60;19.50;;;;;;;21.76;84.21;92654.00;5063866;28;20204;-80
2023/06/26 05:14:53;;;;;;;20.83;18.83;;;;;;;21.71;85.90;92680.81;5067718;28;20223;-80
2023/06/26 05:17:18;;;;;;;20.25;18.25;;;;;;;22.33;83.47;92695.91;5069754;28;20192;-80
2023/06/26 05:19:44;;;;;;;19.73;17.80;;;;;;;22.67;80.37;92673.03;5069652;28;20234;-80
2023/06/26 05:22:10;;;;;;;19.80;18.00;;;;;;;23.24;77.68;92678.28;5068773;28;20192;-80
2023/06/26 05:24:36;;;;;;;19.48;17.58;;;;;;;23.77;75.75;92681.88;5069661;28;20240;-79
2023/06/26 05:27:02;;;;;;;19.30;17.50;;;;;;;23.14;76.61;92700.97;5070297;28;20222;-79
2023/06/26 05:29:28;;;;;;;19.45;17.65;;;;;;;23.33;77.59;92700.94;5069179;28;20247;-80
2023/06/26 05:31:56;;;;;;;19.20;17.35;;;;;;;23.73;75.46;92708.47;5068937;28;20194;-80
2023/06/26 05:34:23;;;;;;;19.13;17.33;;;;;;;23.66;74.50;92677.13;5068237;28;20165;-80
2023/06/26 05:36:51;;;;;;;19.83;17.55;;;;;;;23.39;77.52;92694.19;5069752;28;21774;-81
2023/06/26 05:39:16;;;;;;;18.70;16.83;;;;;;;24.65;73.58;92698.03;5069289;28;20193;-80
2023/06/26 05:41:44;;;;;;;18.80;16.98;;;;;;;26.42;66.59;92709.28;5069941;28;20192;-79
2023/06/26 05:44:09;;;;;;;17.77;16.08;;;;;;;25.01;69.58;92707.25;5069628;28;20215;-80
2023/06/26 05:46:35;;;;;;;18.73;16.85;;;;;;;25.90;66.32;92704.31;5068436;28;20267;-80
2023/06/26 05:49:01;;;;;;;18.63;16.75;;;;;;;25.84;65.54;92706.56;5069046;28;20212;-79
2023/06/26 05:51:28;;;;;;;17.92;16.13;;;;;;;25.48;67.36;92714.66;5068533;28;20276;-80
2023/06/26 05:53:53;;;;;;;18.25;16.42;;;;;;;25.82;65.85;92708.81;5069674;28;20174;-80
2023/06/26 05:56:19;;;;;;;19.85;16.25;;;;;;;28.41;57.98;92697.53;5069119;28;20209;-80
2023/06/26 05:58:45;;;;;;;18.45;16.65;;;;;;;26.04;63.32;92713.25;5069619;28;21683;-79
2023/06/26 06:01:10;;;;;;;18.50;16.55;;;;;;;23.60;73.28;92705.22;5069088;28;20209;-80
2023/06/26 06:03:37;;;;;;;19.38;17.38;;;;;;;24.41;72.40;92705.69;5068814;28;20181;-81
2023/06/26 06:06:03;;;;;;;18.35;16.45;;;;;;;24.64;70.72;92693.81;5061418;28;20297;-80
2023/06/26 06:08:28;;;;;;;18.63;16.60;;;;;;;24.34;70.54;92706.38;5069026;28;20213;-79
2023/06/26 06:10:54;;;;;;;19.90;16.73;;;;;;;23.64;74.38;92703.38;5068827;28;20228;-79
2023/06/26 06:13:19;;;;;;;18.45;16.50;;;;;;;26.43;64.06;92716.94;5069650;28;20181;-79
2023/06/26 06:15:44;;;;;;;17.98;16.27;;;;;;;25.70;65.17;92709.13;5068870;28;20280;-80
2023/06/26 06:18:10;;;;;;;17.50;15.90;;;;;;;25.50;67.64;92699.75;5069577;28;20189;-80
2023/06/26 06:20:35;;;;;;;17.85;15.98;;;;;;;27.56;60.38;92701.34;5067449;28;20276;-80
2023/06/26 06:23:01;;;;;;;17.08;15.48;;;;;;;29.42;54.50;92695.69;5064086;28;20208;-79
2023/06/26 06:25:26;;;;;;;16.55;14.88;;;;;;;29.25;53.81;92705.38;5056913;28;20249;-80
2023/06/26 06:27:51;;;;;;;17.20;15.38;;;;;;;27.06;58.19;92705.81;5067738;28;20229;-76
2023/06/26 06:30:17;;;;;;;17.92;16.13;;;;;;;26.42;61.75;92703.94;5068521;28;20229;-72
2023/06/26 06:32:43;;;;;;;15.15;13.65;;;;;;;29.99;52.30;92723.03;5068849;28;20193;-69
2023/06/26 06:35:09;;;;;;;14.98;13.52;;;;;;;27.17;58.75;92708.50;5068777;28;20219;-69
2023/06/26 06:37:39;;;;;;;15.98;14.68;;;;;;;24.49;66.76;92691.31;5069195;28;20205;-70
2023/06/26 06:40:09;;;;;;;17.17;15.45;;;;;;;23.58;70.30;92694.16;5066175;28;20241;-71
2023/06/26 06:42:35;;;;;;;17.20;15.60;;;;;;;23.90;71.92;92691.97;5069104;28;20182;-72
2023/06/26 06:45:04;;;;;;;17.42;15.63;;;;;;;22.79;75.95;92697.63;5065230;28;20234;-71
2023/06/26 06:47:31;;;;;;;19.00;17.40;;;;;;;21.90;79.81;92672.94;5068375;28;20285;-71
2023/06/26 06:49:57;;;;;;;17.63;15.98;;;;;;;22.33;79.67;92695.13;5069060;28;20237;-72
2023/06/26 06:52:22;;;;;;;18.20;16.48;;;;;;;23.90;75.16;92697.31;5072919;28;20199;-72
2023/06/26 06:54:55;;;;;;;18.77;16.65;;;;;;;24.55;71.10;92695.19;5070402;28;20296;-72
2023/06/26 06:57:21;;;;;;;17.85;16.23;;;;;;;23.84;72.27;92692.66;5072684;28;20192;-71
2023/06/26 06:59:48;;;;;;;18.15;16.25;;;;;;;23.58;75.10;92685.41;5071975;28;20277;-72
2023/06/26 07:02:14;;;;;;;18.00;16.38;;;;;;;24.29;70.95;92682.69;5067622;28;20223;-70
2023/06/26 07:04:39;;;;;;;16.95;15.35;;;;;;;24.27;70.79;92679.59;5072170;28;20232;-71
2023/06/26 07:07:05;;;;;;;17.10;15.65;;;;;;;23.96;73.76;92676.44;5071100;28;20258;-72
2023/06/26 07:09:30;;;;;;;17.30;15.50;;;;;;;23.48;74.21;92681.44;5071652;28;20256;-71
2023/06/26 07:11:55;;;;;;;16.17;14.65;;;;;;;23.43;73.02;92676.38;5065379;28;20184;-72
2023/06/26 07:14:21;;;;;;;15.27;13.98;;;;;;;22.49;75.71;92699.25;5069501;28;20214;-72
2023/06/26 07:16:46;;;;;;;15.52;13.95;;;;;;;22.71;76.98;92682.63;5071598;28;20190;-72
2023/06/26 07:19:11;;;;;;;14.93;13.63;;;;;;;23.65;74.99;92680.94;5071621;28;20197;-71
2023/06/26 07:21:37;;;;;;;16.02;14.65;;;;;;;23.74;71.99;92684.13;5072157;28;20185;-71
2023/06/26 07:24:02;;;;;;;17.05;15.20;;;;;;;23.77;73.99;92684.53;5072399;28;20191;-71
2023/06/26 07:26:28;;;;;;;16.48;14.65;;;;;;;23.86;70.77;92691.16;5071531;28;20271;-72
2023/06/26 07:28:56;;;;;;;15.93;14.45;;;;;;;23.77;71.83;92687.22;5070737;28;20834;-72
2023/06/26 07:31:21;;;;;;;14.20;12.93;;;;;;;24.38;68.85;92685.06;5071057;28;20239;-70
2023/06/26 07:33:47;;;;;;;14.88;13.15;;;;;;;24.50;69.20;92690.94;5071595;28;20211;-72
2023/06/26 07:36:12;;;;;;;13.77;12.70;;;;;;;23.89;71.45;92689.69;5071612;28;20641;-73
2023/06/26 07:38:38;;;;;;;16.25;12.98;;;;;;;23.52;70.13;92676.91;5070991;28;20188;-73
2023/06/26 07:41:03;;;;;;;13.30;12.10;;;;;;;23.74;69.71;92667.34;5070990;28;20283;-73
2023/06/26 07:43:28;;;;;;;13.68;12.27;;;;;;;23.93;68.95;92691.28;5079489;28;20195;-72
2023/06/26 07:45:54;;;;;;;15.32;13.93;;;;;;;23.79;70.89;92691.06;5077812;28;20224;-73
2023/06/26 07:48:19;;;;;;;13.80;12.70;;;;;;;23.87;70.16;92687.38;5072694;28;20204;-71
2023/06/26 07:50:45;;;;;;;15.10;12.02;;;;;;;23.36;69.69;92681.56;5071057;28;20220;-71
2023/06/26 07:53:10;;;;;;;11.57;10.68;;;;;;;23.55;69.50;92684.19;5067699;28;20185;-70
2023/06/26 07:55:35;;;;;;;11.93;10.95;;;;;;;24.00;69.99;92698.63;5070416;28;20219;-71
2023/06/26 07:58:01;;;;;;;13.82;12.52;;;;;;;23.95;70.36;92693.56;5071225;28;20211;-72
2023/06/26 08:00:26;;;;;;;13.95;12.70;;;;;;;24.11;70.91;92688.91;5070964;28;20239;-72
2023/06/26 08:02:52;;;;;;;13.75;12.45;;;;;;;23.88;70.56;92693.47;5069653;28;20199;-73
2023/06/26 08:05:18;;;;;;;13.45;12.02;;;;;;;23.31;70.39;92675.78;5069056;28;20259;-72
2023/06/26 08:07:43;;;;;;;13.52;12.32;;;;;;;23.99;71.24;92683.75;5070462;28;20231;-71
2023/06/26 08:10:09;;;;;;;10.98;10.15;;;;;;;24.25;65.63;92694.44;5070718;28;20232;-72
2023/06/26 08:12:36;;;;;;;11.80;10.80;;;;;;;24.41;65.31;92695.03;5070304;28;20191;-72
2023/06/26 08:15:02;;;;;;;11.82;10.93;;;;;;;24.43;66.02;92687.44;5069482;28;20225;-72
2023/06/26 08:17:28;;;;;;;13.27;12.10;;;;;;;24.41;67.11;92684.34;5066657;28;20243;-73
2023/06/26 08:19:53;;;;;;;14.60;11.80;;;;;;;24.10;68.41;92684.66;5070309;28;20232;-72
2023/06/26 08:22:19;;;;;;;13.27;12.18;;;;;;;24.20;66.85;92689.41;5069748;28;20180;-73
2023/06/26 08:24:44;;;;;;;20.23;12.85;;;;;;;24.16;64.93;92693.91;5054944;28;20228;-72
2023/06/26 08:27:09;;;;;;;17.55;12.32;;;;;;;24.11;65.46;92692.31;5047289;28;21816;-74
2023/06/26 08:29:35;;;;;;;14.70;12.57;;;;;;;24.04;65.18;92691.44;5045337;28;20227;-72
2023/06/26 08:32:02;;;;;;;11.40;10.30;;;;;;;24.12;63.38;92690.44;5069351;28;20911;-69
2023/06/26 08:34:27;;;;;;;11.82;10.93;;;;;;;24.14;65.27;92690.84;5055162;28;20227;-69
2023/06/26 08:36:53;;;;;;;12.20;11.10;;;;;;;23.79;65.80;92693.72;5057873;28;20215;-69
2023/06/26 08:39:18;;;;;;;11.90;11.00;;;;;;;24.34;64.80;92689.59;5069480;28;20181;-70
2023/06/26 08:41:44;;;;;;;11.63;10.77;;;;;;;24.20;66.16;92692.84;5069691;28;20195;-68
2023/06/26 08:44:10;;;;;;;13.18;12.00;;;;;;;23.29;70.11;92694.03;5070332;28;20199;-69
2023/06/26 08:46:36;;;;;;;14.20;13.05;;;;;;;23.06;72.18;92680.66;5069840;28;20212;-69
2023/06/26 08:49:14;;;;;;;12.65;11.63;;;;;;;23.69;70.89;92687.09;5070833;28;20203;-69
2023/06/26 08:51:44;;;;;;;12.50;11.52;;;;;;;23.98;69.17;92688.34;5071549;28;20212;-68
2023/06/26 08:54:15;;;;;;;12.57;11.68;;;;;;;24.12;64.48;92693.88;5070248;28;20195;-69
2023/06/26 08:56:44;;;;;;;12.50;11.52;;;;;;;24.37;64.98;92694.22;5069750;28;20207;-69
2023/06/26 08:59:14;;;;;;;12.55;11.65;;;;;;;24.63;68.33;92700.28;5070268;28;20199;-70
2023/06/26 09:01:40;;;;;;;13.45;12.27;;;;;;;24.39;66.58;92694.63;5058974;28;20186;-69
2023/06/26 09:04:06;;;;;;;11.73;10.75;;;;;;;24.16;65.89;92697.34;5069037;28;20199;-69
2023/06/26 09:06:32;;;;;;;12.20;11.10;;;;;;;23.94;66.11;92678.72;5069886;28;20229;-70
2023/06/26 09:08:57;;;;;;;13.30;12.30;;;;;;;23.36;66.61;92684.25;5069802;28;20216;-69
2023/06/26 09:11:22;;;;;;;12.25;11.35;;;;;;;24.04;68.20;92688.78;5069551;28;20216;-70
2023/06/26 09:13:48;;;;;;;11.85;10.88;;;;;;;23.77;64.55;92683.41;5067988;28;20200;-70
2023/06/26 09:16:13;;;;;;;12.43;11.48;;;;;;;23.94;65.77;92687.47;5069457;28;20284;-71
2023/06/26 09:18:42;;;;;;;11.50;10.52;;;;;;;23.88;64.94;92682.81;5069675;28;20182;-72
2023/06/26 09:21:09;;;;;;;11.13;10.32;;;;;;;23.66;67.31;92690.47;5063895;28;20228;-70
2023/06/26 09:23:35;;;;;;;12.43;11.23;;;;;;;24.13;66.67;92691.97;5065937;28;20193;-70
2023/06/26 09:26:03;;;;;;;12.00;11.10;;;;;;;24.10;66.05;92687.34;5067414;28;20238;-71
2023/06/26 09:28:30;;;;;;;12.45;11.32;;;;;;;24.18;66.77;92670.31;5069654;28;20227;-71
2023/06/26 09:31:01;;;;;;;11.70;10.80;;;;;;;23.98;65.69;92679.56;5069292;28;20221;-71
2023/06/26 09:33:26;;;;;;;12.48;10.95;;;;;;;24.40;63.54;92685.47;5068754;28;20193;-71
2023/06/26 09:35:52;;;;;;;12.45;11.35;;;;;;;24.49;65.29;92680.63;5066929;28;20239;-72
2023/06/26 09:38:18;;;;;;;12.02;11.02;;;;;;;24.43;65.93;92669.53;5068335;28;20252;-71
2023/06/26 09:40:43;;;;;;;11.93;10.93;;;;;;;24.34;67.37;92684.25;5068915;28;20228;-70
2023/06/26 09:43:13;;;;;;;11.93;10.73;;;;;;;24.37;65.40;92683.53;5069369;28;20202;-71
2023/06/26 09:45:39;;;;;;;11.80;10.80;;;;;;;24.20;64.34;92684.06;5068927;28;20219;-71
2023/06/26 09:48:08;;;;;;;12.32;11.32;;;;;;;24.31;65.23;92687.66;5069091;28;20295;-70
2023/06/26 09:50:34;;;;;;;12.23;11.13;;;;;;;24.23;64.87;92673.44;5060733;28;20243;-71
2023/06/26 09:53:10;;;;;;;12.10;11.10;;;;;;;25.29;62.71;92697.63;5069674;28;20191;-72
2023/06/26 09:55:37;;;;;;;12.07;11.13;;;;;;;25.00;59.26;92701.13;5069130;28;20286;-71
2023/06/26 09:58:03;;;;;;;12.50;10.98;;;;;;;24.49;62.51;92691.31;5068562;28;20181;-71
2023/06/26 10:00:30;;;;;;;12.20;11.15;;;;;;;24.38;61.34;92695.75;5068663;28;20227;-71
2023/06/26 10:02:56;;;;;;;11.43;10.45;;;;;;;24.09;63.11;92680.47;5069399;28;20262;-71
2023/06/26 10:05:21;;;;;;;12.07;11.07;;;;;;;24.30;64.17;92686.88;5068113;28;20219;-72
2023/06/26 10:07:48;;;;;;;13.02;10.65;;;;;;;24.49;61.81;92680.63;5068051;28;20279;-72
2023/06/26 10:10:16;;;;;;;11.50;10.60;;;;;;;24.93;60.52;92677.03;5068628;28;20241;-71
2023/06/26 10:12:45;;;;;;;12.40;10.30;;;;;;;24.86;58.61;92673.47;5067747;28;20195;-71
2023/06/26 10:15:13;;;;;;;10.77;9.98;;;;;;;24.96;59.42;92678.19;5068081;28;20216;-71
2023/06/26 10:17:43;;;;;;;11.43;10.43;;;;;;;25.29;58.96;92686.94;5069118;28;20200;-71
2023/06/26 10:20:09;;;;;;;11.13;10.32;;;;;;;24.94;59.10;92677.78;5068032;28;20224;-71
2023/06/26 10:22:40;;;;;;;10.57;9.88;;;;;;;24.82;57.60;92678.03;5069128;28;20733;-71
2023/06/26 10:25:07;;;;;;;11.07;10.15;;;;;;;25.22;58.59;92680.75;5075943;28;20310;-71
2023/06/26 10:27:41;;;;;;;11.65;10.55;;;;;;;25.05;57.57;92676.00;5073155;28;20251;-74
2023/06/26 10:30:11;;;;;;;12.02;10.93;;;;;;;25.21;58.48;92668.53;5070342;28;20235;-71
2023/06/26 10:32:37;;;;;;;15.98;10.27;;;;;;;24.98;56.92;92675.94;5073074;28;20276;-71
2023/06/26 10:35:06;;;;;;;11.35;10.35;;;;;;;25.08;57.24;92680.59;5072857;28;20268;-71
2023/06/26 10:37:46;;;;;;;10.55;9.85;;;;;;;25.28;57.16;92676.59;5073133;28;20286;-71
2023/06/26 10:40:13;;;;;;;11.45;10.55;;;;;;;25.12;56.70;92674.16;5072100;28;20224;-71
2023/06/26 10:42:39;;;;;;;10.90;10.00;;;;;;;24.91;56.38;92673.94;5073244;28;20188;-72
2023/06/26 10:45:13;;;;;;;11.40;10.32;;;;;;;24.63;56.95;92675.47;5070516;28;20461;-71
2023/06/26 10:47:41;;;;;;;11.73;10.93;;;;;;;24.43;59.11;92674.09;5072626;28;20231;-72
2023/06/26 10:50:35;;;;;;;12.57;11.57;;;;;;;23.89;60.61;92677.13;5071129;28;20233;-70
2023/06/26 10:53:20;;;;;;;11.98;10.93;;;;;;;24.23;57.09;92672.66;5072204;28;20181;-70
2023/06/26 10:55:58;;;;;;;11.55;10.40;;;;;;;24.00;60.02;92664.72;5056733;28;20252;-70
2023/06/26 10:58:29;;;;;;;11.18;10.27;;;;;;;24.31;59.70;92668.97;5051119;28;20190;-71
2023/06/26 11:01:17;;;;;;;16.40;11.65;;;;;;;24.36;58.38;92671.34;5061636;28;20231;-69
2023/06/26 11:03:58;;;;;;;12.23;11.23;;;;;;;24.41;59.16;92661.09;5069166;28;20188;-69
2023/06/26 11:06:24;;;;;;;11.45;10.50;;;;;;;24.29;58.38;92669.34;5070358;28;20250;-72
2023/06/26 11:09:13;;;;;;;12.32;11.52;;;;;;;24.17;57.82;92668.78;5072303;28;20211;-72
2023/06/26 11:12:04;;;;;;;11.50;10.60;;;;;;;24.04;58.61;92664.78;5069222;28;20234;-71
2023/06/26 11:14:30;;;;;;;12.63;11.57;;;;;;;24.01;58.49;92660.16;5071515;28;20243;-71